Latest Coastal Weather Observations for Mandora

IDW60701

Issued at 10:21 am WST Sunday 1 May 2016 (issued every 10 minutes, with the page automatically refreshed every 10 minutes)

About coastal observations | Map of coastal stations | Coastal observations for WA | Marine services | Other Formats
Station Details ID: 004019 Name: MANDORA Lat: -19.74 Lon: 120.84 Height: 7.5 m
Data from the previous 72 hours. | See also: Recent months at Mandora
Date/Time
WST
Temp

°C
Wind Pressure Rain
since 9am
mm
Weather Cloud Vis
km
Sea
Height
m
Swell
Dir
 
Speed
knots
Gust
knots
hPa Trend Height
m
Period
s
Dir
01/10:00am 32.6 SSW 9 13 1013.8 - 0.0 - - - - - - -
01/09:30am 32.1 SSW 8 12 1013.9 - 0.0 - - - - - - -
01/09:00am 30.6 SSW 9 12 1013.9 - 0.0 - - - - - - -
01/08:30am 28.7 SW 10 13 1013.8 - 0.0 - - - - - - -
01/08:00am 27.0 SSW 7 9 1014.0 - 0.0 - - - - - - -
01/07:30am 25.2 SSW 3 4 1013.9 - 0.0 - - - - - - -
01/07:00am 23.2 S 4 4 1013.8 - 0.0 - - - - - - -
01/06:30am 22.7 S 4 5 1013.7 - 0.0 - - - - - - -
01/06:00am 22.9 SSE 4 5 1013.4 - 0.0 - - - - - - -
01/05:30am 23.1 SSE 4 6 1013.2 - 0.0 - - - - - - -
01/05:00am 23.3 SE 4 6 1012.8 - 0.0 - - - - - - -
01/04:30am 23.6 SSE 5 7 1012.3 - 0.0 - - - - - - -
01/04:00am 23.6 S 4 6 1012.0 - 0.0 - - - - - - -
01/03:30am 23.9 SSW 5 7 1011.6 - 0.0 - - - - - - -
01/03:00am 24.3 SW 6 7 1011.6 - 0.0 - - - - - - -
01/02:30am 24.4 SW 7 9 1011.5 - 0.0 - - - - - - -
01/02:00am 24.4 SW 6 9 1011.4 - 0.0 - - - - - - -
01/01:30am 24.0 SW 7 9 1011.5 - 0.0 - - - - - - -
01/01:00am 24.0 SW 6 7 1011.5 - 0.0 - - - - - - -
01/12:30am 24.3 SW 6 8 1011.6 - 0.0 - - - - - - -
01/12:00am 24.3 SW 6 8 1011.6 - 0.0 - - - - - - -
 
Date/Time
WST
Temp

°C
Wind Pressure Rain
since 9am
mm
Weather Cloud Vis
km
Sea
Height
m
Swell
Dir
 
Speed
knots
Gust
knots
hPa Trend Height
m
Period
s
Dir
30/11:30pm 24.5 SW 6 7 1011.8 - 0.0 - - - - - - -
30/11:00pm 24.4 SW 6 8 1011.9 - 0.0 - - - - - - -
30/10:30pm 24.4 SW 6 7 1012.1 - 0.0 - - - - - - -
30/10:00pm 24.1 SW 6 7 1012.1 - 0.0 - - - - - - -
30/09:30pm 24.3 SW 5 6 1012.2 - 0.0 - - - - - - -
30/09:00pm 24.5 SW 4 5 1012.5 - 0.0 - - - - - - -
30/08:30pm 24.9 W 4 5 1012.3 - 0.0 - - - - - - -
30/08:00pm 24.9 W 5 5 1012.0 - 0.0 - - - - - - -
30/07:30pm 25.6 W 4 4 1011.9 - 0.0 - - - - - - -
30/07:00pm 26.3 W 4 5 1011.5 - 0.0 - - - - - - -
30/06:30pm 26.8 WNW 5 6 1011.1 - 0.0 - - - - - - -
30/06:00pm 27.6 WNW 6 8 1011.0 - 0.0 - - - - - - -
30/05:30pm 28.4 WNW 7 9 1010.6 - 0.0 - - - - - - -
30/05:00pm 29.6 WNW 9 11 1010.3 - 0.0 - - - - - - -
30/04:30pm 30.8 WNW 7 12 1010.1 - 0.0 - - - - - - -
30/04:00pm 31.8 WNW 9 14 1009.9 - 0.0 - - - - - - -
30/03:30pm 31.9 WNW 10 13 1009.8 - 0.0 - - - - - - -
30/03:00pm 32.6 WNW 9 13 1009.8 - 0.0 - - - - - - -
30/02:30pm 32.5 WNW 10 14 1009.9 - 0.0 - - - - - - -
30/02:00pm 33.1 NW 9 13 1010.0 - 0.0 - - - - - - -
30/01:30pm 33.4 NW 9 14 1010.4 - 0.0 - - - - - - -
30/01:00pm 33.2 NW 9 14 1010.7 - 0.0 - - - - - - -
30/12:30pm 33.7 NW 8 11 1011.1 - 0.0 - - - - - - -
30/12:00pm 33.5 WNW 8 13 1011.5 - 0.0 - - - - - - -
30/11:30am 34.5 W 5 8 1011.9 - 0.0 - - - - - - -
30/11:00am 34.0 WSW 4 9 1012.4 - 0.0 - - - - - - -
30/10:30am 33.0 W 5 8 1012.8 - 0.0 - - - - - - -
30/10:00am 32.0 S 4 7 1013.2 - 0.0 - - - - - - -
30/09:30am 30.7 SSW 6 10 1013.5 - 0.0 - - - - - - -
30/09:00am 29.4 SSW 6 9 1013.4 - 0.2 - - - - - - -
30/08:30am 28.4 SSW 7 11 1013.4 - 0.2 - - - - - - -
30/08:00am 26.6 S 7 10 1013.3 - 0.2 - - - - - - -
30/07:30am 24.7 SSE 6 10 1013.0 - 0.2 - - - - - - -
30/07:00am 23.1 SSE 5 7 1012.7 - 0.2 - - - - - - -
30/06:30am 22.6 S 5 6 1012.3 - 0.2 - - - - - - -
30/06:00am 22.5 S 5 8 1012.3 - 0.2 - - - - - - -
30/05:30am 22.6 S 5 7 1012.1 - 0.2 - - - - - - -
30/05:00am 22.4 S 4 6 1011.8 - 0.2 - - - - - - -
30/04:30am 22.5 S 5 6 1011.6 - 0.2 - - - - - - -
30/04:00am 22.6 SSW 4 5 1011.4 - 0.2 - - - - - - -
30/03:30am 22.5 SW 5 6 1011.0 - 0.2 - - - - - - -
30/03:00am 22.8 WSW 5 7 1011.0 - 0.2 - - - - - - -
30/02:30am 22.8 WSW 5 6 1010.9 - 0.2 - - - - - - -
30/02:00am 22.4 WSW 5 6 1011.0 - 0.2 - - - - - - -
30/01:30am 22.5 SW 5 6 1010.9 - 0.2 - - - - - - -
30/01:00am 22.7 WSW 5 5 1011.0 - 0.2 - - - - - - -
30/12:30am 22.8 WSW 5 6 1011.1 - 0.2 - - - - - - -
30/12:00am 23.1 SSW 4 5 1011.4 - 0.2 - - - - - - -
 
Date/Time
WST
Temp

°C
Wind Pressure Rain
since 9am
mm
Weather Cloud Vis
km
Sea
Height
m
Swell
Dir
 
Speed
knots
Gust
knots
hPa Trend Height
m
Period
s
Dir
29/11:30pm 23.4 SSW 4 5 1011.7 - 0.2 - - - - - - -
29/11:00pm 24.0 SW 3 4 1011.9 - 0.2 - - - - - - -
29/10:30pm 24.4 WSW 4 4 1012.1 - 0.2 - - - - - - -
29/10:00pm 24.9 WNW 5 7 1012.3 - 0.2 - - - - - - -
29/09:30pm 25.3 WNW 6 7 1012.3 - 0.2 - - - - - - -
29/09:00pm 25.5 WNW 5 6 1012.3 - 0.2 - - - - - - -
29/08:30pm 25.5 WNW 5 6 1012.4 - 0.2 - - - - - - -
29/08:00pm 25.9 WNW 5 6 1012.2 - 0.2 - - - - - - -
29/07:30pm 26.2 WNW 5 6 1011.8 - 0.2 - - - - - - -
29/07:00pm 26.7 WNW 5 7 1011.4 - 0.2 - - - - - - -
29/06:30pm 27.1 WNW 6 8 1011.3 - 0.2 - - - - - - -
29/06:00pm 27.6 NW 7 8 1011.0 - 0.2 - - - - - - -
29/05:30pm 28.3 NW 8 11 1010.7 - 0.2 - - - - - - -
29/05:00pm 29.4 NW 9 13 1010.7 - 0.2 - - - - - - -
29/04:30pm 30.2 NW 10 14 1010.5 - 0.2 - - - - - - -
29/04:00pm 31.2 NW 11 14 1010.1 - 0.2 - - - - - - -
29/03:30pm 32.0 NW 10 14 1009.8 - 0.2 - - - - - - -
29/03:00pm 32.7 NW 10 14 1009.9 - 0.2 - - - - - - -
29/02:30pm 33.2 NW 10 14 1009.7 - 0.2 - - - - - - -
29/02:00pm 33.6 NW 10 14 1009.7 - 0.2 - - - - - - -
29/01:30pm 33.6 NW 10 15 1009.9 - 0.2 - - - - - - -
29/01:00pm 34.1 NW 10 14 1010.1 - 0.2 - - - - - - -
29/12:30pm 34.5 NW 9 15 1010.2 - 0.2 - - - - - - -
29/12:00pm 34.2 NW 9 13 1010.5 - 0.2 - - - - - - -
29/11:30am 33.8 WNW 7 11 1010.8 - 0.2 - - - - - - -
29/11:00am 34.4 WSW 5 9 1011.2 - 0.2 - - - - - - -
29/10:30am 33.4 WSW 5 10 1011.8 - 0.2 - - - - - - -
29/10:00am 32.1 W 5 8 1012.2 - 0.2 - - - - - - -
29/09:30am 31.1 SSW 6 9 1012.3 - 0.0 - - - - - - -
29/09:00am 30.0 SW 5 7 1012.4 - 0.0 - - - - - - -
29/08:30am 28.5 S 4 6 1012.4 - 0.0 - - - - - - -
29/08:00am 26.2 S 5 7 1012.2 - 0.0 - - - - - - -
29/07:30am 24.7 S 5 8 1012.0 - 0.0 - - - - - - -
29/07:00am 23.6 SSE 4 6 1011.7 - 0.0 - - - - - - -
29/06:30am 23.1 S 4 5 1011.3 - 0.0 - - - - - - -
29/06:00am 22.9 S 5 7 1011.1 - 0.0 - - - - - - -
29/05:30am 20.2 SE 1 3 1010.9 - 0.0 - - - - - - -
29/05:00am 20.7 SE 3 3 1010.5 - 0.0 - - - - - - -
29/04:30am 20.9 SSW 3 4 1010.2 - 0.0 - - - - - - -
29/04:00am 21.1 SW 2 3 1010.0 - 0.0 - - - - - - -
29/03:30am 21.4 SW 2 5 1010.0 - 0.0 - - - - - - -
29/03:00am 21.7 CALM 0 0 1010.0 - 0.0 - - - - - - -
29/02:30am 22.0 CALM 0 0 1010.0 - 0.0 - - - - - - -
29/02:00am 22.8 CALM 0 0 1010.1 - 0.0 - - - - - - -
29/01:30am 23.2 CALM 0 0 1009.9 - 0.0 - - - - - - -
29/01:00am 24.4 WSW 5 6 1010.0 - 0.0 - - - - - - -
29/12:30am 24.8 WSW 6 8 1010.2 - 0.0 - - - - - - -
29/12:00am 24.6 WSW 6 7 1010.2 - 0.0 - - - - - - -
 
Date/Time
WST
Temp

°C
Wind Pressure Rain
since 9am
mm
Weather Cloud Vis
km
Sea
Height
m
Swell
Dir
 
Speed
knots
Gust
knots
hPa Trend Height
m
Period
s
Dir
28/11:30pm 24.4 WSW 5 6 1010.4 - 0.0 - - - - - - -
28/11:00pm 24.1 W 5 5 1010.6 - 0.0 - - - - - - -
28/10:30pm 24.4 WSW 4 5 1010.6 - 0.0 - - - - - - -
28/10:00pm 25.2 W 5 7 1010.8 - 0.0 - - - - - - -
28/09:30pm 24.7 W 5 5 1011.0 - 0.0 - - - - - - -
28/09:00pm 24.8 NNW 3 4 1010.9 - 0.0 - - - - - - -
28/08:30pm 25.6 W 5 5 1010.7 - 0.0 - - - - - - -
28/08:00pm 25.8 WNW 4 6 1010.6 - 0.0 - - - - - - -
28/07:30pm 26.1 NW 5 7 1010.5 - 0.0 - - - - - - -
28/07:00pm 26.5 NW 5 6 1010.2 - 0.0 - - - - - - -
28/06:30pm 26.5 NNW 6 6 1009.9 - 0.0 - - - - - - -
28/06:00pm 27.5 NW 5 7 1009.9 - 0.0 - - - - - - -
28/05:30pm 28.6 NW 6 11 1009.7 - 0.0 - - - - - - -
28/05:00pm 29.8 NW 7 13 1009.5 - 0.0 - - - - - - -
28/04:30pm 30.5 NW 8 12 1009.2 - 0.0 - - - - - - -
28/04:00pm 30.9 NW 9 13 1009.0 - 0.0 - - - - - - -
28/03:30pm 31.6 NW 9 13 1008.8 - 0.0 - - - - - - -
28/03:00pm 32.1 NW 11 15 1008.7 - 0.0 - - - - - - -
28/02:30pm 32.6 NW 9 14 1008.6 - 0.0 - - - - - - -
28/02:00pm 33.1 NW 9 14 1008.8 - 0.0 - - - - - - -
28/01:30pm 32.7 NW 10 14 1008.9 - 0.0 - - - - - - -
28/01:00pm 33.2 NW 10 14 1009.1 - 0.0 - - - - - - -
28/12:30pm 34.1 WNW 10 15 1009.4 - 0.0 - - - - - - -
28/12:00pm 33.6 WNW 9 13 1009.7 - 0.0 - - - - - - -
28/11:30am 32.9 NW 9 14 1010.3 - 0.0 - - - - - - -
28/11:00am 33.0 WNW 7 11 1010.8 - 0.0 - - - - - - -
28/10:30am 32.3 WNW 6 11 1011.1 - 0.0 - - - - - - -

Other Formats:

Comma delimited format used in spreadsheet applications
http://www.bom.gov.au/fwo/IDW60701/IDW60701.94200.axf

JavaScript Object Notation format (JSON) in row-major order
http://www.bom.gov.au/fwo/IDW60701/IDW60701.94200.json